Pagina principale
METAR-TAF:

METAR-TAF

Aeroporti :

Aeroporto di Bonriki

Tarawa, Kiribati

latitudine: 01-21N, longitudine: 172-55E, altezza: 2 m

Osservazione

Il bollettino è stato emesso 31 minuti fa, alle 13:00 UTC
Vento 7 kt da est/sud-est
Temperature 28°C
Umidità 79%
Pressione 1009 hPa
Visibilità 10 km o più
Poco nuvoloso ad un'altezza di 2000 ft

METAR: NGTA 191300Z 11007KT 9999 FEW020 28/24 Q1009

Ora: 03:31 (13:31 UTC)

Previsione

Il bollettino è stato emesso 2 ore e 17 minuti fa, alle 11:14 UTC
Previsione valida dal 19 alle 12 UTC al 20 alle 12 UTC
Vento 8 kt da est
Visibilità 10 km o più
Nubi sparse ad un'altezza di 1800 ft
Nubi sparse ad un'altezza di 10000 ft
Probabilità 30% :
Temporaneamente
dal 19 alle 14 UTC al 19 alle 18 UTC
Visibilità: 5000 m
Nuvoloso ad un'altezza di 1500 ft
rovesci di pioggia

TAF: NGTA 191114Z 1912/2012 09008KT 9999 SCT018 SCT100 PROB30 TEMPO 1914/1918 5000 SHRA BKN015

Osservazioni e previsioni meteorologiche di più di 4000 aeroporti (messaggi METAR e TAF).

Le stazioni disponibili sono rappresentate dai dischi gialli e rossi sulla carta.

Puntare il mouse per vedere il nome della stazione.

Clicca sopra per visualizzare le osservazioni e previsioni meteorologiche.

Per cambiare la mappa : fare clic sui pulsanti verdi con una croce nera per ingrandire, il pulsante verde con un trattino per diminuire, o sulla freccia verde per le mappe adiacenti.


METAR-TAF: